createdAt,value
2022-09-23T00:00:24.561Z,9.97
2022-09-23T00:03:35.346Z,9.80
2022-09-23T00:06:24.515Z,9.63
2022-09-23T00:09:46.507Z,9.51
2022-09-23T00:12:37.367Z,9.41
2022-09-23T00:15:14.400Z,9.32
2022-09-23T00:20:37.979Z,11.19
2022-09-23T00:23:10.714Z,12.16
2022-09-23T00:25:43.865Z,11.79
2022-09-23T00:28:14.482Z,11.20
2022-09-23T00:30:44.883Z,10.78
2022-09-23T00:33:15.160Z,10.47
2022-09-23T00:35:43.529Z,10.20
2022-09-23T00:38:12.034Z,9.99
2022-09-23T00:40:49.769Z,9.83
2022-09-23T00:43:22.729Z,9.68
2022-09-23T00:46:05.345Z,9.53
2022-09-23T00:48:47.374Z,9.39
2022-09-23T00:51:19.843Z,9.30
2022-09-23T00:53:48.049Z,9.23
2022-09-23T00:56:21.008Z,9.18
2022-09-23T00:58:50.643Z,9.10
2022-09-23T01:01:19.676Z,9.01
2022-09-23T01:03:50.476Z,9.19
2022-09-23T01:06:18.541Z,10.55
2022-09-23T01:08:48.565Z,11.99
2022-09-23T01:11:21.325Z,12.78
2022-09-23T01:14:17.140Z,12.25
2022-09-23T01:16:56.656Z,11.43
2022-09-23T01:19:37.397Z,10.90
2022-09-23T01:22:16.773Z,10.54
2022-09-23T01:25:16.741Z,10.27
2022-09-23T01:28:21.246Z,10.01
2022-09-23T01:31:08.134Z,9.79
2022-09-23T01:33:47.181Z,9.55
2022-09-23T01:36:37.058Z,9.34
2022-09-23T01:39:17.126Z,9.18
2022-09-23T01:42:22.242Z,9.05
2022-09-23T01:44:56.645Z,8.92
2022-09-23T01:47:36.144Z,8.81
2022-09-23T01:50:51.201Z,8.71
2022-09-23T01:53:24.888Z,8.59
2022-09-23T01:55:57.961Z,8.51
2022-09-23T01:58:33.822Z,8.83
2022-09-23T02:01:09.904Z,10.50
2022-09-23T02:03:53.084Z,11.72
2022-09-23T02:06:21.992Z,11.30
2022-09-23T02:09:22.201Z,10.65
2022-09-23T02:11:52.642Z,10.11
2022-09-23T02:14:24.597Z,9.83
2022-09-23T02:16:58.253Z,9.60
2022-09-23T02:19:36.282Z,9.41
2022-09-23T02:22:38.247Z,9.23
2022-09-23T02:25:07.874Z,9.04
2022-09-23T02:27:51.919Z,8.90
2022-09-23T02:30:34.843Z,8.75
2022-09-23T02:33:05.061Z,8.62
2022-09-23T02:35:43.518Z,8.53
2022-09-23T02:38:26.821Z,8.44
2022-09-23T02:41:09.651Z,8.33
2022-09-23T02:44:00.066Z,8.57
2022-09-23T02:46:30.315Z,10.32
2022-09-23T02:49:11.233Z,11.56
2022-09-23T02:51:41.040Z,11.23
2022-09-23T02:54:14.976Z,10.61
2022-09-23T02:56:43.389Z,10.12
2022-09-23T02:59:19.458Z,9.75
2022-09-23T03:02:00.539Z,9.46
2022-09-23T03:04:50.451Z,9.23
2022-09-23T03:07:23.817Z,9.02
2022-09-23T03:10:10.836Z,8.87
2022-09-23T03:12:46.111Z,8.71
2022-09-23T03:15:26.415Z,8.58
2022-09-23T03:18:01.544Z,8.48
2022-09-23T03:20:58.360Z,8.38
2022-09-23T03:23:33.680Z,8.26
2022-09-23T03:26:07.463Z,8.15
2022-09-23T03:28:42.090Z,8.05
2022-09-23T03:31:12.325Z,8.29
2022-09-23T03:34:01.757Z,9.93
2022-09-23T03:36:51.625Z,11.56
2022-09-23T03:39:47.977Z,11.68
2022-09-23T03:42:27.110Z,10.82
2022-09-23T03:44:57.955Z,10.23
2022-09-23T03:47:28.906Z,9.85
2022-09-23T03:49:58.206Z,9.56
2022-09-23T03:52:26.878Z,9.30
2022-09-23T03:54:57.921Z,9.10
2022-09-23T03:57:26.114Z,8.92
2022-09-23T03:59:54.139Z,8.75
2022-09-23T04:02:22.458Z,8.58
2022-09-23T04:04:51.548Z,8.43
2022-09-23T04:07:19.627Z,8.30
2022-09-23T04:09:47.862Z,8.18
2022-09-23T04:12:16.645Z,8.06
2022-09-23T04:14:45.430Z,7.95
2022-09-23T04:17:13.507Z,7.86
2022-09-23T04:19:45.179Z,7.79
2022-09-23T04:22:15.906Z,7.71
2022-09-23T04:24:44.684Z,7.65
2022-09-23T04:27:12.872Z,7.89
2022-09-23T04:29:43.651Z,9.53
2022-09-23T04:32:11.882Z,11.03
2022-09-23T04:34:41.286Z,11.40
2022-09-23T04:37:10.378Z,10.74
2022-09-23T04:39:38.321Z,10.13
2022-09-23T04:42:07.657Z,9.68
2022-09-23T04:44:35.910Z,9.36
2022-09-23T04:47:05.569Z,9.12
2022-09-23T04:49:35.932Z,8.92
2022-09-23T04:52:08.371Z,8.74
2022-09-23T04:54:36.984Z,8.58
2022-09-23T04:57:08.334Z,8.42
2022-09-23T04:59:38.760Z,8.29
2022-09-23T05:02:08.539Z,8.19
2022-09-23T05:04:41.488Z,8.10
2022-09-23T05:07:10.666Z,8.01
2022-09-23T05:09:43.739Z,7.90
2022-09-23T05:12:12.226Z,7.82
2022-09-23T05:14:50.169Z,8.09
2022-09-23T05:17:21.994Z,9.82
2022-09-23T05:19:51.714Z,11.24
2022-09-23T05:22:22.059Z,11.63
2022-09-23T05:24:52.042Z,10.99
2022-09-23T05:27:22.582Z,10.40
2022-09-23T05:29:56.281Z,10.00
2022-09-23T05:32:33.456Z,9.73
2022-09-23T05:35:04.813Z,9.54
2022-09-23T05:37:35.146Z,9.39
2022-09-23T05:40:06.163Z,9.25
2022-09-23T05:42:34.978Z,9.14
2022-09-23T05:45:04.667Z,9.05
2022-09-23T05:47:34.619Z,8.94
2022-09-23T05:50:12.326Z,8.85
2022-09-23T05:52:44.857Z,8.79
2022-09-23T05:55:15.573Z,8.79
2022-09-23T05:57:56.983Z,9.30
2022-09-23T06:00:28.496Z,11.10
2022-09-23T06:03:06.235Z,12.48
2022-09-23T06:05:40.526Z,12.21
2022-09-23T06:08:11.805Z,11.62
2022-09-23T06:10:45.478Z,11.24
2022-09-23T06:13:17.970Z,11.01
2022-09-23T06:15:51.514Z,10.86
2022-09-23T06:18:19.722Z,10.77
2022-09-23T06:20:49.162Z,10.72
2022-09-23T06:23:17.002Z,10.67
2022-09-23T06:28:37.834Z,10.64
2022-09-23T06:31:14.290Z,10.66
2022-09-23T06:33:46.052Z,10.67
2022-09-23T06:36:35.953Z,11.06
2022-09-23T06:39:06.955Z,13.02
2022-09-23T06:41:35.722Z,14.17
2022-09-23T06:44:08.921Z,13.95
2022-09-23T06:46:37.029Z,13.41
2022-09-23T06:49:06.959Z,13.07
2022-09-23T06:51:34.989Z,12.87
2022-09-23T06:54:09.122Z,12.74
2022-09-23T06:56:39.505Z,12.64
2022-09-23T06:59:13.141Z,12.59
2022-09-23T07:01:45.319Z,12.56
2022-09-23T07:04:14.651Z,12.52
2022-09-23T07:06:42.654Z,12.53
2022-09-23T07:09:14.349Z,12.55
2022-09-23T07:11:42.393Z,12.61
2022-09-23T07:14:14.180Z,12.68
2022-09-23T07:16:42.731Z,12.75
2022-09-23T07:19:12.285Z,12.82
2022-09-23T07:21:41.634Z,12.85
2022-09-23T07:24:09.659Z,12.89
2022-09-23T07:26:44.894Z,12.95
2022-09-23T07:29:14.648Z,13.03
2022-09-23T07:31:43.350Z,13.12
2022-09-23T07:34:11.753Z,13.19
2022-09-23T07:36:43.058Z,13.27
2022-09-23T07:39:13.773Z,13.36
2022-09-23T07:41:44.620Z,13.43
2022-09-23T07:44:12.917Z,13.53
2022-09-23T07:46:44.811Z,13.63
2022-09-23T07:49:13.677Z,13.74
2022-09-23T07:51:45.970Z,13.85
2022-09-23T07:54:16.384Z,13.96
2022-09-23T07:56:45.140Z,14.05
2022-09-23T07:59:19.347Z,14.14
2022-09-23T08:01:50.631Z,14.24
2022-09-23T08:04:22.126Z,14.35
2022-09-23T08:06:52.281Z,14.49
2022-09-23T08:09:22.093Z,14.58
2022-09-23T08:11:51.066Z,14.63
2022-09-23T08:14:19.649Z,14.69
2022-09-23T08:16:47.746Z,14.78
2022-09-23T08:19:16.513Z,14.88
2022-09-23T08:21:49.398Z,15.02
2022-09-23T08:24:21.021Z,15.18
2022-09-23T08:26:53.325Z,15.30
2022-09-23T08:29:22.935Z,15.40
2022-09-23T08:31:54.183Z,15.50
2022-09-23T08:34:24.022Z,15.65
2022-09-23T08:36:52.490Z,15.79
2022-09-23T08:39:21.687Z,15.92
2022-09-23T08:42:02.459Z,16.06
2022-09-23T08:45:03.170Z,16.21
2022-09-23T08:48:10.823Z,16.37
2022-09-23T08:50:50.719Z,16.61
2022-09-23T08:53:29.963Z,16.85
2022-09-23T08:56:18.408Z,17.03
2022-09-23T08:59:05.510Z,17.20
2022-09-23T09:01:41.869Z,17.45
2022-09-23T09:04:42.401Z,17.66
2022-09-23T09:07:35.172Z,17.81
2022-09-23T09:10:18.683Z,18.04
2022-09-23T09:13:00.476Z,18.26
2022-09-23T09:15:31.162Z,18.50
2022-09-23T09:18:25.608Z,18.68
2022-09-23T09:21:08.520Z,18.91
2022-09-23T09:23:46.482Z,19.14
2022-09-23T09:26:23.004Z,19.36
2022-09-23T09:29:11.413Z,19.58
2022-09-23T09:31:51.304Z,19.82
2022-09-23T09:34:45.671Z,20.06
2022-09-23T09:37:38.418Z,20.29
2022-09-23T09:40:12.921Z,20.44
2022-09-23T09:42:50.027Z,20.58
2022-09-23T09:45:33.530Z,20.73
2022-09-23T09:54:18.213Z,21.32
2022-09-23T09:59:25.715Z,21.52
2022-09-23T10:02:32.730Z,21.55
2022-09-23T10:05:03.241Z,21.53
2022-09-23T10:07:32.759Z,21.55
2022-09-23T10:10:32.292Z,21.55
2022-09-23T10:13:15.051Z,21.56
2022-09-23T10:15:45.021Z,21.41
2022-09-23T10:18:24.730Z,21.46
2022-09-23T10:20:52.599Z,21.49
2022-09-23T10:23:24.371Z,21.22
2022-09-23T10:26:01.141Z,21.02
2022-09-23T10:28:50.357Z,21.10
2022-09-23T10:31:35.642Z,20.87
2022-09-23T10:34:24.706Z,20.55
2022-09-23T10:37:25.229Z,20.23
2022-09-23T10:40:11.844Z,19.98
2022-09-23T10:43:13.307Z,20.03
2022-09-23T10:46:06.629Z,20.19
2022-09-23T10:48:55.966Z,20.11
2022-09-23T10:51:51.607Z,19.97
2022-09-23T10:54:44.253Z,19.98
2022-09-23T10:57:41.680Z,20.14
2022-09-23T11:00:24.962Z,20.30
2022-09-23T11:03:12.902Z,20.64
2022-09-23T11:06:06.777Z,20.90
2022-09-23T11:08:53.699Z,21.11
2022-09-23T11:11:48.901Z,21.25
2022-09-23T11:14:41.030Z,21.44
2022-09-23T11:17:33.589Z,21.57
2022-09-23T11:20:31.206Z,21.63
2022-09-23T11:23:05.697Z,21.99
2022-09-23T11:25:47.157Z,22.05
2022-09-23T11:28:30.184Z,21.92
2022-09-23T11:31:05.720Z,21.77
2022-09-23T11:33:42.505Z,21.88
2022-09-23T11:36:28.530Z,22.08
2022-09-23T11:38:57.253Z,22.00
2022-09-23T11:41:38.547Z,21.99
2022-09-23T11:44:12.591Z,22.06
2022-09-23T11:46:49.419Z,22.31
2022-09-23T11:49:17.215Z,22.53
2022-09-23T11:52:14.403Z,22.48
2022-09-23T11:55:04.673Z,22.38
2022-09-23T11:57:52.925Z,22.57
2022-09-23T12:00:38.435Z,22.91
2022-09-23T12:03:23.545Z,23.28
2022-09-23T12:05:56.690Z,23.57
2022-09-23T12:08:32.353Z,23.82
2022-09-23T12:11:20.301Z,24.08
2022-09-23T12:14:16.422Z,24.35
2022-09-23T12:16:48.709Z,24.60
2022-09-23T12:19:55.481Z,24.73
2022-09-23T12:22:26.652Z,24.74
2022-09-23T12:24:56.881Z,24.62
2022-09-23T12:27:40.234Z,24.57
2022-09-23T12:30:15.186Z,24.64
2022-09-23T12:32:43.462Z,24.74
2022-09-23T12:35:26.957Z,24.78
2022-09-23T12:37:54.834Z,24.93
2022-09-23T12:40:31.089Z,25.17
2022-09-23T12:43:01.205Z,25.38
2022-09-23T12:45:34.830Z,25.49
2022-09-23T12:48:43.745Z,25.40
2022-09-23T12:51:16.351Z,25.45
2022-09-23T12:53:59.766Z,25.51
2022-09-23T12:56:38.625Z,25.56
2022-09-23T12:59:09.449Z,25.37
2022-09-23T13:01:38.047Z,25.01
2022-09-23T13:04:24.616Z,24.68
2022-09-23T13:07:08.836Z,24.34
2022-09-23T13:09:41.576Z,23.99
2022-09-23T13:12:18.816Z,23.87
2022-09-23T13:14:49.746Z,23.71
2022-09-23T13:17:29.817Z,23.47
2022-09-23T13:20:02.756Z,23.27
2022-09-23T13:23:01.795Z,23.43
2022-09-23T13:25:35.058Z,23.92
2022-09-23T13:28:03.834Z,24.33
2022-09-23T13:30:31.646Z,24.41
2022-09-23T13:33:18.833Z,24.33
2022-09-23T13:35:52.403Z,24.31
2022-09-23T13:38:26.214Z,24.66
2022-09-23T13:40:57.599Z,25.29
2022-09-23T13:43:31.839Z,25.96
2022-09-23T13:46:01.016Z,26.66
2022-09-23T13:48:28.885Z,27.35
2022-09-23T13:50:56.918Z,28.10
2022-09-23T13:53:29.262Z,28.86
2022-09-23T13:56:15.921Z,29.53
2022-09-23T13:58:43.720Z,29.99
2022-09-23T14:01:33.778Z,30.37
2022-09-23T14:04:04.904Z,30.72
2022-09-23T14:06:36.039Z,30.97
2022-09-23T14:09:03.901Z,30.71
2022-09-23T14:11:35.407Z,30.16
2022-09-23T14:14:07.416Z,29.52
2022-09-23T14:16:38.154Z,29.13
2022-09-23T14:19:08.086Z,29.41
2022-09-23T14:21:37.774Z,30.05
2022-09-23T14:24:41.467Z,30.58
2022-09-23T14:27:19.043Z,30.76
2022-09-23T14:29:48.222Z,30.36
2022-09-23T14:32:21.247Z,29.75
2022-09-23T14:34:59.503Z,29.10
2022-09-23T14:38:10.612Z,28.92
2022-09-23T14:40:51.344Z,29.28
2022-09-23T14:43:26.199Z,29.72
2022-09-23T14:45:55.938Z,29.68
2022-09-23T14:48:27.360Z,29.13
2022-09-23T14:51:06.624Z,28.59
2022-09-23T14:53:34.444Z,27.94
2022-09-23T14:56:08.473Z,27.30
2022-09-23T14:58:54.734Z,26.83
2022-09-23T15:01:27.728Z,26.44
2022-09-23T15:03:56.151Z,26.12
2022-09-23T15:06:24.791Z,25.80
2022-09-23T15:08:53.398Z,25.50
2022-09-23T15:11:25.272Z,25.27
2022-09-23T15:13:52.951Z,25.06
2022-09-23T15:16:28.006Z,24.87
2022-09-23T15:18:57.870Z,24.62
2022-09-23T15:21:41.036Z,24.30
2022-09-23T15:24:41.394Z,24.06
2022-09-23T15:27:29.339Z,23.73
2022-09-23T15:30:17.082Z,23.30
2022-09-23T15:32:45.798Z,22.84
2022-09-23T15:35:19.150Z,22.49
2022-09-23T15:37:49.275Z,22.18
2022-09-23T15:40:22.659Z,21.95
2022-09-23T15:42:53.793Z,21.69
2022-09-23T15:45:29.308Z,21.44
2022-09-23T15:48:00.984Z,21.12
2022-09-23T15:50:30.235Z,20.81
2022-09-23T15:52:59.475Z,20.49
2022-09-23T15:55:27.494Z,20.19
2022-09-23T15:57:57.170Z,19.94
2022-09-23T16:00:25.362Z,19.68
2022-09-23T16:02:54.072Z,19.42
2022-09-23T16:05:37.002Z,19.17
2022-09-23T16:08:08.937Z,18.91
2022-09-23T16:10:37.805Z,18.71
2022-09-23T16:13:08.877Z,18.52
2022-09-23T16:15:39.105Z,18.31
2022-09-23T16:18:08.627Z,18.14
2022-09-23T16:20:44.723Z,17.97
2022-09-23T16:23:34.463Z,17.80
2022-09-23T16:26:06.330Z,17.65
2022-09-23T16:28:34.493Z,17.51
2022-09-23T16:31:03.095Z,17.41
2022-09-23T16:33:31.007Z,17.30
2022-09-23T16:36:00.897Z,17.20
2022-09-23T16:38:29.558Z,17.09
2022-09-23T16:41:00.176Z,17.00
2022-09-23T16:43:31.719Z,16.89
2022-09-23T16:45:59.644Z,16.75
2022-09-23T16:48:27.488Z,16.60
2022-09-23T16:50:55.277Z,16.47
2022-09-23T16:53:23.567Z,16.36
2022-09-23T16:55:53.474Z,16.26
2022-09-23T16:58:21.317Z,16.17
2022-09-23T17:01:07.921Z,16.06
2022-09-23T17:03:41.972Z,15.94
2022-09-23T17:06:13.517Z,15.86
2022-09-23T17:08:42.827Z,15.78
2022-09-23T17:11:11.133Z,15.69
2022-09-23T17:13:41.237Z,15.58
2022-09-23T17:16:11.815Z,15.49
2022-09-23T17:18:39.682Z,15.41
2022-09-23T17:21:08.598Z,15.63
2022-09-23T17:23:37.176Z,17.02
2022-09-23T17:26:05.508Z,18.14
2022-09-23T17:28:33.488Z,18.66
2022-09-23T17:31:03.822Z,18.13
2022-09-23T17:33:35.239Z,17.54
2022-09-23T17:36:07.788Z,17.10
2022-09-23T17:38:36.110Z,16.75
2022-09-23T17:41:04.857Z,16.49
2022-09-23T17:43:33.536Z,16.28
2022-09-23T17:46:06.382Z,16.09
2022-09-23T17:48:36.003Z,15.93
2022-09-23T17:51:06.451Z,15.77
2022-09-23T17:53:37.079Z,15.61
2022-09-23T17:56:08.292Z,15.45
2022-09-23T17:58:37.524Z,15.32
2022-09-23T18:01:12.475Z,15.18
2022-09-23T18:03:43.479Z,15.37
2022-09-23T18:06:19.550Z,16.64
2022-09-23T18:08:49.286Z,17.87
2022-09-23T18:11:25.413Z,18.14
2022-09-23T18:14:01.286Z,17.52
2022-09-23T18:16:31.256Z,16.94
2022-09-23T18:19:00.710Z,16.52
2022-09-23T18:21:31.589Z,16.22
2022-09-23T18:24:28.057Z,15.98
2022-09-23T18:26:49.783Z,15.73
2022-09-23T18:29:18.616Z,15.53
2022-09-23T18:31:51.112Z,15.35
2022-09-23T18:34:20.448Z,15.20
2022-09-23T18:36:48.409Z,15.05
2022-09-23T18:39:16.738Z,14.90
2022-09-23T18:41:45.173Z,14.79
2022-09-23T18:44:13.090Z,14.69
2022-09-23T18:46:40.873Z,14.59
2022-09-23T18:49:27.751Z,14.49
2022-09-23T18:51:57.436Z,14.36
2022-09-23T18:54:28.471Z,14.26
2022-09-23T18:56:56.800Z,14.16
2022-09-23T18:59:28.024Z,14.05
2022-09-23T19:02:00.479Z,14.20
2022-09-23T19:04:29.098Z,15.49
2022-09-23T19:06:57.984Z,16.55
2022-09-23T19:09:26.272Z,16.28
2022-09-23T19:11:54.372Z,15.72
2022-09-23T19:14:22.320Z,15.29
2022-09-23T19:16:50.903Z,14.96
2022-09-23T19:19:18.837Z,14.73
2022-09-23T19:21:46.698Z,14.56
2022-09-23T19:24:19.853Z,14.41
2022-09-23T19:26:48.751Z,14.27
2022-09-23T19:29:22.019Z,14.11
2022-09-23T19:31:51.054Z,13.98
2022-09-23T19:34:23.771Z,13.86
2022-09-23T19:36:53.028Z,13.75
2022-09-23T19:39:23.452Z,13.64
2022-09-23T19:41:52.473Z,13.54
2022-09-23T19:44:20.545Z,13.45
2022-09-23T19:46:55.010Z,13.37
2022-09-23T19:49:25.886Z,13.29
2022-09-23T19:51:55.969Z,13.23
2022-09-23T19:54:27.470Z,13.17
2022-09-23T19:56:56.073Z,13.11
2022-09-23T19:59:26.555Z,13.06
2022-09-23T20:01:54.955Z,13.01
2022-09-23T20:04:23.516Z,13.22
2022-09-23T20:06:52.356Z,14.68
2022-09-23T20:09:20.811Z,16.11
2022-09-23T20:11:48.804Z,16.71
2022-09-23T20:14:17.933Z,16.16
2022-09-23T20:16:46.231Z,15.50
2022-09-23T20:19:14.281Z,15.02
2022-09-23T20:21:42.090Z,14.65
2022-09-23T20:24:11.929Z,14.37
2022-09-23T20:26:58.169Z,14.10
2022-09-23T20:29:26.449Z,13.88
2022-09-23T20:31:54.423Z,13.70
2022-09-23T20:34:22.565Z,13.53
2022-09-23T20:36:50.651Z,13.37
2022-09-23T20:39:18.434Z,13.23
2022-09-23T20:41:48.156Z,13.10
2022-09-23T20:44:16.105Z,12.98
2022-09-23T20:46:48.773Z,12.87
2022-09-23T20:49:17.688Z,12.77
2022-09-23T20:51:48.240Z,12.68
2022-09-23T20:54:21.590Z,12.60
2022-09-23T20:56:49.451Z,12.82
2022-09-23T20:59:18.502Z,14.19
2022-09-23T21:01:46.580Z,15.45
2022-09-23T21:04:14.521Z,16.05
2022-09-23T21:06:42.263Z,15.54
2022-09-23T21:09:10.045Z,14.91
2022-09-23T21:11:38.188Z,14.46
2022-09-23T21:14:06.072Z,14.11
2022-09-23T21:16:34.073Z,13.85
2022-09-23T21:19:03.349Z,13.61
2022-09-23T21:21:31.203Z,13.41
2022-09-23T21:24:17.167Z,13.21
2022-09-23T21:26:47.777Z,13.03
2022-09-23T21:29:16.214Z,12.89
2022-09-23T21:31:44.195Z,12.77
2022-09-23T21:34:12.682Z,12.65
2022-09-23T21:36:43.103Z,12.55
2022-09-23T21:39:11.507Z,12.44
2022-09-23T21:41:40.025Z,12.34
2022-09-23T21:44:08.515Z,12.24
2022-09-23T21:46:36.813Z,12.41
2022-09-23T21:49:05.334Z,13.69
2022-09-23T21:51:40.796Z,14.96
2022-09-23T21:54:15.522Z,15.64
2022-09-23T21:56:44.000Z,15.07
2022-09-23T21:59:12.031Z,14.43
2022-09-23T22:01:43.553Z,13.96
2022-09-23T22:04:16.990Z,13.60
2022-09-23T22:06:45.716Z,13.31
2022-09-23T22:09:16.899Z,13.08
2022-09-23T22:12:03.902Z,12.88
2022-09-23T22:14:32.011Z,12.70
2022-09-23T22:17:01.356Z,12.56
2022-09-23T22:19:35.462Z,12.41
2022-09-23T22:22:13.291Z,12.28
2022-09-23T22:24:44.954Z,12.15
2022-09-23T22:27:14.417Z,12.03
2022-09-23T22:30:00.795Z,11.94
2022-09-23T22:32:46.161Z,11.82
2022-09-23T22:35:19.176Z,12.17
2022-09-23T22:37:48.245Z,13.68
2022-09-23T22:40:16.366Z,14.93
2022-09-23T22:42:44.488Z,15.41
2022-09-23T22:45:13.435Z,14.82
2022-09-23T22:47:45.149Z,14.16
2022-09-23T22:50:14.687Z,13.67
2022-09-23T22:52:43.197Z,13.32
2022-09-23T22:55:11.741Z,13.05
2022-09-23T22:57:39.621Z,12.81
2022-09-23T23:01:43.644Z,12.61
2022-09-23T23:04:13.255Z,12.32
2022-09-23T23:06:44.006Z,12.15
2022-09-23T23:09:16.893Z,11.99
2022-09-23T23:11:47.427Z,11.86
2022-09-23T23:14:18.056Z,11.75
2022-09-23T23:16:46.580Z,11.98
2022-09-23T23:19:17.523Z,13.43
2022-09-23T23:21:48.815Z,14.84
2022-09-23T23:24:23.234Z,15.49
2022-09-23T23:26:53.564Z,14.88
2022-09-23T23:29:24.145Z,14.20
2022-09-23T23:31:52.612Z,13.71
2022-09-23T23:34:21.586Z,13.35
2022-09-23T23:36:54.738Z,13.09
2022-09-23T23:39:25.398Z,12.84
2022-09-23T23:41:59.404Z,12.64
2022-09-23T23:44:27.792Z,12.46
2022-09-23T23:46:56.017Z,12.30
2022-09-23T23:49:28.797Z,12.16
2022-09-23T23:51:59.280Z,12.34
2022-09-23T23:54:27.548Z,13.78
2022-09-23T23:56:55.748Z,14.86
2022-09-23T23:59:27.670Z,14.55
